Flight Track Log - Related Links

Times and Time Zones

All times are in EDT time to prevent confusion due to time zone crossing. See the UAL1295 flight status page for this flight to view local times or setup timezone preferences in your user account.


Time Position Orientation Groundspeed Altitude Reporting Facility
EDT Latitude Longitude Course Direction KTS MPH feet Rate Location/Type
Thu 03:02:35 PM 18.4500 -65.9667 335° Northwest 130 150 1,300  Level San Juan Center
Thu 03:03:36 PM 18.5167 -66.0000 335° Northwest 250 288 2,800 2,331 Climbing San Juan Center
Thu 03:04:36 PM 18.5667 -66.0667 308° West 280 322 6,000 3,100 Climbing San Juan Center
Thu 03:05:36 PM 18.6167 -66.1167 317° Northwest 290 334 9,000 2,926 Climbing San Juan Center
Thu 03:06:37 PM 18.6667 -66.1833 308° West 290 334 11,900 2,777 Climbing San Juan Center
Thu 03:07:37 PM 18.7333 -66.2500 317° Northwest 310 357 14,600 2,479 Climbing San Juan Center
Thu 03:08:38 PM 18.8000 -66.3167 317° Northwest 320 368 16,900 1,488 Climbing San Juan Center
Thu 03:09:38 PM 18.8500 -66.4000 302° West 370 426 17,600 1,250 Climbing San Juan Center
Thu 03:10:38 PM 18.9333 -66.4833 317° Northwest 410 472 19,400 1,884 Climbing San Juan Center
Thu 03:11:39 PM 19.0167 -66.5667 317° Northwest 420 483 21,400 1,835 Climbing San Juan Center
Thu 03:12:39 PM 19.1167 -66.6667 317° Northwest 440 506 23,100 1,636 Climbing San Juan Center
Thu 03:13:40 PM 19.2167 -66.7500 322° Northwest 440 506 24,700 1,686 Climbing San Juan Center
Thu 03:14:40 PM 19.3000 -66.8167 323° Northwest 440 506 26,500 1,650 Climbing San Juan Center
Thu 03:15:40 PM 19.4000 -66.9000 322° Northwest 430 495 28,000 1,388 Climbing San Juan Center
Thu 03:16:41 PM 19.5000 -66.9833 322° Northwest 430 495 29,300 1,140 Climbing San Juan Center
Thu 03:17:41 PM 19.6000 -67.0667 322° Northwest 440 506 30,300 1,150 Climbing San Juan Center
Thu 03:18:41 PM 19.6833 -67.1500 317° Northwest 440 506 31,600 1,339 Climbing San Juan Center
Thu 03:19:42 PM 19.7833 -67.2333 322° Northwest 420 483 33,000 1,388 Climbing San Juan Center
Thu 03:20:42 PM 19.8667 -67.3000 323° Northwest 410 472 34,400 1,190 Climbing San Juan Center
Thu 03:21:43 PM 19.9667 -67.3833 322° Northwest 410 472 35,400 793 Climbing San Juan Center
Thu 03:22:43 PM 20.0500 -67.4500 323° Northwest 400 460 36,000 300 Climbing San Juan Center
Thu 03:23:43 PM 20.1333 -67.5333 317° Northwest 420 483 36,000  Level San Juan Center
Thu 03:24:43 PM 20.2333 -67.6167 322° Northwest 410 472 36,000  Level San Juan Center
Thu 03:25:44 PM 20.3167 -67.6833 323° Northwest 420 483 36,000  Level San Juan Center
Thu 03:26:44 PM 20.4167 -67.7667 322° Northwest 420 483 36,000  Level San Juan Center
Thu 03:27:44 PM 20.5000 -67.8333 323° Northwest 410 472 36,000  Level San Juan Center
Thu 03:28:45 PM 20.5833 -67.9167 317° Northwest 410 472 36,000  Level San Juan Center
Thu 03:30:07 PM 20.7339 -68.0328 324° Northwest 441 507 36,000  Level Miami Center
Thu 03:31:07 PM 20.8214 -68.1069 322° Northwest 424 488 36,000  Level Miami Center
Thu 03:32:07 PM 20.9186 -68.1714 328° Northwest 410 472 36,000  Level Miami Center
Thu 03:33:07 PM 21.0139 -68.2364 328° Northwest 410 472 36,000  Level Miami Center
Thu 03:34:07 PM 21.1111 -68.3011 328° Northwest 405 466 36,000  Level Miami Center
Thu 03:35:07 PM 21.2044 -68.3664 327° Northwest 411 473 36,000  Level Miami Center
Thu 03:36:07 PM 21.3078 -68.4308 330° Northwest 416 479 36,000  Level Miami Center
Thu 03:37:19 PM 21.4031 -68.4983 327° Northwest 416 479 36,000  Level Miami Center
Thu 03:38:19 PM 21.5200 -68.5778 328° Northwest 416 479 36,000  Level Miami Center
Thu 03:39:19 PM 21.6150 -68.6431 327° Northwest 416 479 36,000  Level Miami Center
Thu 03:40:19 PM 21.7167 -68.7106 328° Northwest 416 479 36,000  Level Miami Center
Thu 03:41:19 PM 21.8075 -68.7764 326° Northwest 416 479 36,000  Level Miami Center
Thu 03:42:19 PM 21.9006 -68.8400 328° Northwest 416 479 36,000  Level Miami Center
Thu 03:43:19 PM 22.0064 -68.9094 329° Northwest 416 479 36,000  Level Miami Center
Thu 03:44:19 PM 22.0994 -68.9753 327° Northwest 416 479 36,000  Level Miami Center
Thu 03:45:19 PM 22.1922 -69.0369 328° Northwest 416 479 36,000  Level Miami Center
Thu 03:46:19 PM 22.2872 -69.1053 326° Northwest 416 479 36,000 -100 Level Miami Center
Thu 03:47:19 PM 22.3867 -69.1733 328° Northwest 416 479 35,800 -550 Descending Miami Center
Thu 03:48:19 PM 22.4858 -69.2392 328° Northwest 416 479 34,900 -900 Descending Miami Center
Thu 03:49:19 PM 22.5767 -69.3014 328° Northwest 409 471 34,000 -450 Descending Miami Center
Thu 03:50:19 PM 22.6544 -69.3575 326° Northwest 409 471 34,000  Level Miami Center
Thu 03:51:19 PM 22.7711 -69.4383 327° Northwest 414 476 34,000  Level Miami Center
Thu 03:52:19 PM 22.8661 -69.5050 327° Northwest 408 470 34,000  Level Miami Center
Thu 03:53:19 PM 22.9608 -69.5692 328° Northwest 411 473 34,000  Level Miami Center
Thu 03:54:19 PM 23.0581 -69.6358 328° Northwest 411 473 34,000  Level Miami Center
Thu 03:55:19 PM 23.1531 -69.7050 326° Northwest 411 473 34,000  Level Miami Center
Thu 03:56:19 PM 23.2522 -69.7717 328° Northwest 411 473 34,000  Level Miami Center
Thu 03:57:19 PM 23.3472 -69.8411 326° Northwest 416 479 34,000  Level Miami Center
Thu 03:58:19 PM 23.4442 -69.9103 327° Northwest 416 479 34,000  Level Miami Center
Thu 03:59:19 PM 23.5389 -69.9731 329° Northwest 416 479 34,000  Level Miami Center
Thu 04:00:19 PM 23.6381 -70.0444 327° Northwest 411 473 34,000  Level Miami Center
Thu 04:01:19 PM 23.7331 -70.1097 328° Northwest 416 479 34,000  Level Miami Center
Thu 04:02:19 PM 23.8322 -70.1814 327° Northwest 411 473 34,000  Level Miami Center
Thu 04:03:19 PM 23.9292 -70.2489 328° Northwest 417 480 34,000  Level Miami Center
Thu 04:04:19 PM 24.0261 -70.3189 327° Northwest 417 480 34,000  Level Miami Center
Thu 04:05:19 PM 24.1206 -70.3822 329° Northwest 412 474 34,000  Level Miami Center
Thu 04:06:19 PM 24.2178 -70.4544 326° Northwest 412 474 34,000  Level Miami Center
Thu 04:07:19 PM 24.3125 -70.5247 326° Northwest 412 474 34,000  Level Miami Center
Thu 04:08:19 PM 24.4094 -70.5972 326° Northwest 412 474 34,000  Level Miami Center
Thu 04:09:19 PM 24.5017 -70.6519 332° Northwest 407 468 34,000  Level Miami Center
Thu 04:10:19 PM 24.5986 -70.7292 324° Northwest 408 470 34,000  Level Miami Center
Thu 04:11:19 PM 24.6911 -70.7931 328° Northwest 408 470 34,000  Level Miami Center
Thu 04:12:19 PM 24.7853 -70.8503 331° Northwest 401 461 34,000  Level Miami Center
Thu 04:13:19 PM 24.8800 -70.9233 325° Northwest 413 475 34,000  Level Miami Center
Thu 04:14:19 PM 24.9747 -70.9942 326° Northwest 413 475 34,000  Level Miami Center
Thu 04:15:19 PM 25.0000 -71.0167 347° North 409 471 34,000  Level New York Oceanic (ODAPS)
Thu 04:15:19 PM 25.0847 -71.0325 347° North 391 450 34,000  Level Miami Center
Thu 04:16:19 PM 25.1989 -71.0661 345° North 413 475 34,000  Level Miami Center
Thu 04:46:41 PM 28.3167 -71.9167 346° North 425 489 34,000  Level New York Oceanic (ODAPS)
Thu 05:00:35 PM 30.1667 -72.4500 346° North 371 427 34,000  Level New York Oceanic (ODAPS)
Thu 05:07:53 PM 30.5667 -72.5667 345° North 433 498 34,000  Level New York Oceanic (ODAPS)
Thu 05:19:35 PM 32.3167 -73.1000 345° North 432 497 34,000  Level New York Oceanic (ODAPS)
Thu 05:27:58 PM 33.2500 -73.4000 345° North 416 479 34,000  Level New York Oceanic (ODAPS)
Thu 05:30:14 PM 33.6267 -73.5086 345° North 415 478 34,000  Level New York Center
Thu 05:31:00 PM 33.7641 -73.5673 345° North 432 497 34,000  Level FlightAware Transoceanic
Thu 05:31:14 PM 33.7489 -73.5403 348° North 441 507 34,000  Level New York Center
Thu 05:32:00 PM 33.8846 -73.6069 345° North 432 497 34,000 -100 Level FlightAware Transoceanic
Thu 05:32:14 PM 33.8561 -73.5939 337° Northwest 429 494 33,900  Descending New York Center
Thu 05:33:00 PM 34.0052 -73.6467 345° North 432 497 34,000  Climbing FlightAware Transoceanic
Thu 05:33:14 PM 33.9844 -73.6233 349° North 453 521 33,900  Descending New York Center
Thu 05:34:00 PM 34.0318 -73.6557 345° North 416 479 34,000 100 Climbing FlightAware Transoceanic
Thu 05:34:14 PM 34.1047 -73.6603 346° North 448 516 34,000  Level New York Center
Thu 05:35:14 PM 34.2225 -73.7022 344° North 443 510 34,000  Level New York Center
Thu 05:36:14 PM 34.3425 -73.7392 346° North 443 510 34,000 -50 Level New York Center
Thu 05:37:14 PM 34.4300 -73.8231 322° Northwest 412 474 33,900  Descending New York Center
Thu 05:38:14 PM 34.5064 -73.9242 313° West 406 467 34,000  Climbing New York Center
Thu 05:39:14 PM 34.5833 -74.0156 316° Northwest 401 461 33,900  Descending New York Center
Thu 05:40:15 PM 34.6558 -74.1094 313° West 386 444 34,000  Climbing New York Center
Thu 05:41:14 PM 34.7322 -74.2011 315° West 386 444 33,900  Descending New York Center
Thu 05:42:14 PM 34.8067 -74.2928 315° West 381 438 34,000 50 Climbing New York Center
Thu 05:43:14 PM 34.8789 -74.3897 312° West 381 438 34,000 -50 Level New York Center
Thu 05:44:14 PM 34.9531 -74.4842 314° West 381 438 33,900  Descending New York Center
Thu 05:45:14 PM 35.0292 -74.5792 314° West 386 444 34,000  Climbing New York Center
Thu 05:46:14 PM 35.1056 -74.6692 316° Northwest 386 444 33,900  Descending New York Center
Thu 05:47:14 PM 35.1794 -74.7694 312° West 386 444 34,000 47 Climbing New York Center
Thu 05:48:22 PM 35.2586 -74.8800 311° West 410 472 34,000  Level Washington Center
Thu 05:49:20 PM 35.3344 -74.9761 314° West 410 472 34,000  Level Washington Center
Thu 05:50:22 PM 35.4142 -75.0672 317° Northwest 405 466 34,000  Level Washington Center
Thu 05:51:22 PM 35.4875 -75.1686 312° West 398 458 34,000  Level Washington Center
Thu 05:52:22 PM 35.5631 -75.2628 315° West 393 452 34,000  Level Washington Center
Thu 05:53:20 PM 35.6361 -75.3569 314° West 393 452 34,000  Level Washington Center
Thu 05:54:21 PM 35.7094 -75.4564 312° West 393 452 34,000  Level Washington Center
Thu 05:55:21 PM 35.7844 -75.5511 314° West 393 452 34,000  Level Washington Center
Thu 05:56:22 PM 35.8597 -75.6511 313° West 393 452 34,000  Level Washington Center
Thu 05:57:22 PM 35.9328 -75.7486 313° West 393 452 34,000  Level Washington Center
Thu 05:58:22 PM 36.0075 -75.8461 313° West 393 452 34,000  Level Washington Center
Thu 05:59:20 PM 36.0825 -75.9492 312° West 393 452 34,000  Level Washington Center
Thu 06:00:20 PM 36.1572 -76.0447 314° West 398 458 34,000  Level Washington Center
Thu 06:01:21 PM 36.2319 -76.1431 313° West 392 451 34,000 -50 Level Washington Center
Thu 06:02:20 PM 36.2981 -76.2492 308° West 392 451 33,900 -50 Descending Washington Center
Thu 06:03:20 PM 36.3603 -76.3556 306° West 392 451 33,900 50 Level Washington Center
Thu 06:04:21 PM 36.4219 -76.4619 306° West 387 445 34,000 49 Climbing Washington Center
Thu 06:05:22 PM 36.4858 -76.5711 306° West 387 445 34,000  Level Washington Center
Thu 06:06:20 PM 36.5475 -76.6803 305° West 387 445 34,000 -51 Level Washington Center
Thu 06:07:20 PM 36.6092 -76.7847 306° West 382 440 33,900  Descending Washington Center
Thu 06:08:21 PM 36.6706 -76.8919 306° West 382 440 34,000 50 Climbing Washington Center
Thu 06:09:21 PM 36.7319 -77.0017 305° West 382 440 34,000  Level Washington Center
Thu 06:10:21 PM 36.7953 -77.1092 306° West 382 440 34,000  Level Washington Center
Thu 06:11:22 PM 36.8544 -77.2169 304° West 382 440 34,000  Level Washington Center
Thu 06:12:22 PM 36.9156 -77.3272 305° West 382 440 34,000  Level Washington Center
Thu 06:13:23 PM 36.9744 -77.4325 305° West 377 434 34,000  Level Washington Center
Thu 06:14:20 PM 37.0372 -77.5406 306° West 377 434 34,000  Level Washington Center
Thu 06:15:21 PM 37.0981 -77.6464 306° West 377 434 34,000  Level Washington Center
Thu 06:16:21 PM 37.1589 -77.7550 305° West 377 434 34,000  Level Washington Center
Thu 06:17:22 PM 37.2194 -77.8608 306° West 377 434 34,000  Level Washington Center
Thu 06:18:22 PM 37.2819 -77.9672 306° West 377 434 34,000  Level Washington Center
Thu 06:19:20 PM 37.3489 -78.0711 309° West 382 440 34,000  Level Washington Center
Thu 06:20:20 PM 37.4236 -78.1833 310° West 382 440 34,000  Level Washington Center
Thu 06:21:21 PM 37.4881 -78.2878 308° West 382 440 34,000 50 Level Washington Center
Thu 06:22:21 PM 37.5525 -78.3922 308° West 382 440 34,100 496 Climbing Washington Center
Thu 06:23:22 PM 37.6169 -78.4914 309° West 377 434 35,000 450 Climbing Washington Center
Thu 06:24:21 PM 37.6731 -78.5856 307° West 372 428 35,000  Level Washington Center
Thu 06:25:22 PM 37.7372 -78.6853 309° West 372 428 35,000  Level Washington Center
Thu 06:26:22 PM 37.7992 -78.7850 308° West 372 428 35,000  Level Washington Center
Thu 06:27:20 PM 37.8689 -78.9011 307° West 372 428 35,000 203 Level Washington Center
Thu 06:28:20 PM 37.9328 -79.0039 308° West 372 428 35,400 500 Climbing Washington Center
Thu 06:29:20 PM 37.9967 -79.1069 308° West 372 428 36,000 298 Climbing Washington Center
Thu 06:30:21 PM 38.0544 -79.2019 308° West 372 428 36,000  Level Washington Center
Thu 06:31:23 PM 38.1158 -79.3053 307° West 372 428 36,000  Level Washington Center
Thu 06:32:20 PM 38.1792 -79.4089 308° West 372 428 36,000 203 Level Washington Center
Thu 06:33:21 PM 38.2486 -79.5233 308° West 372 428 36,400 541 Climbing Washington Center
Thu 06:34:22 PM 38.3119 -79.6272 308° West 372 428 37,100 555 Climbing Washington Center
Thu 06:35:20 PM 38.3728 -79.7339 306° West 372 428 37,500 403 Climbing Washington Center
Thu 06:36:21 PM 38.4397 -79.8464 307° West 377 434 37,900 246 Climbing Washington Center
Thu 06:37:22 PM 38.5008 -79.9453 308° West 389 448 38,000 50 Climbing Washington Center
Thu 06:38:20 PM 38.5656 -80.0581 306° West 397 457 38,000  Level Washington Center
Thu 06:40:10 PM 38.6814 -80.2461 308° West 392 451 38,000  Level Indianapolis Center
Thu 06:41:12 PM 38.7592 -80.3778 307° West 389 448 38,000  Level Indianapolis Center
Thu 06:42:14 PM 38.8242 -80.4892 307° West 389 448 38,000  Level Indianapolis Center
Thu 06:43:16 PM 38.8886 -80.5989 307° West 389 448 38,000  Level Indianapolis Center
Thu 06:44:18 PM 38.9519 -80.7086 307° West 388 447 38,000  Level Indianapolis Center
Thu 06:45:20 PM 39.0161 -80.8181 307° West 387 445 38,000  Level Indianapolis Center
Thu 06:46:23 PM 39.0644 -80.9372 298° West 381 438 38,000  Level Indianapolis Center
Thu 06:47:25 PM 39.1233 -81.0786 298° West 379 436 38,000  Level Indianapolis Center
Thu 06:48:27 PM 39.1717 -81.1961 298° West 376 433 38,000  Level Indianapolis Center
Thu 06:49:29 PM 39.2206 -81.3150 298° West 376 433 38,000  Level Indianapolis Center
Thu 06:50:31 PM 39.2683 -81.4344 297° West 376 433 38,000  Level Indianapolis Center
Thu 06:51:33 PM 39.3175 -81.5539 298° West 376 433 38,000  Level Indianapolis Center
Thu 06:52:35 PM 39.3753 -81.6956 298° West 376 433 38,000  Level Indianapolis Center
Thu 06:53:37 PM 39.4233 -81.8164 297° West 376 433 38,000  Level Indianapolis Center
Thu 06:54:39 PM 39.4728 -81.9350 298° West 376 433 38,000  Level Indianapolis Center
Thu 06:55:41 PM 39.5197 -82.0575 296° West 376 433 38,000  Level Indianapolis Center
Thu 06:56:43 PM 39.5756 -82.1972 297° West 379 436 38,000  Level Indianapolis Center
Thu 06:57:45 PM 39.6247 -82.3175 298° West 379 436 38,000  Level Indianapolis Center
Thu 06:58:47 PM 39.6722 -82.4422 296° West 382 440 38,000  Level Indianapolis Center
Thu 06:59:49 PM 39.7211 -82.5650 297° West 383 441 38,000  Level Indianapolis Center
Thu 07:00:51 PM 39.7706 -82.6889 297° West 385 443 38,000  Level Indianapolis Center
Thu 07:01:53 PM 39.8186 -82.8150 296° West 386 444 38,000  Level Indianapolis Center
Thu 07:02:55 PM 39.8772 -82.9667 297° West 389 448 38,000  Level Indianapolis Center
Thu 07:03:57 PM 39.9269 -83.0931 297° West 392 451 38,000  Level Indianapolis Center
Thu 07:04:59 PM 39.9744 -83.2172 297° West 391 450 38,000  Level Indianapolis Center
Thu 07:06:01 PM 40.0211 -83.3400 296° West 390 449 38,000  Level Indianapolis Center
Thu 07:07:03 PM 40.0675 -83.4619 296° West 386 444 38,000  Level Indianapolis Center
Thu 07:08:04 PM 40.1244 -83.6092 297° West 385 443 38,000  Level Indianapolis Center
Thu 07:09:06 PM 40.1711 -83.7328 296° West 385 443 38,000  Level Indianapolis Center
Thu 07:10:08 PM 40.2175 -83.8567 296° West 384 442 38,000  Level Indianapolis Center
Thu 07:11:10 PM 40.2642 -83.9814 296° West 384 442 38,000  Level Indianapolis Center
Thu 07:12:12 PM 40.3203 -84.0997 302° West 384 442 38,000  Level Indianapolis Center
Thu 07:13:14 PM 40.3869 -84.2072 309° West 384 442 38,000  Level Indianapolis Center
Thu 07:14:16 PM 40.4686 -84.3389 309° West 384 442 38,000  Level Indianapolis Center
Thu 07:15:18 PM 40.5358 -84.4494 309° West 385 443 38,000 -726 Level Indianapolis Center
Thu 07:16:20 PM 40.6025 -84.5603 308° West 386 444 36,500 -1,902 Descending Indianapolis Center
Thu 07:17:21 PM 40.6706 -84.6711 309° West 386 444 34,100 -1,220 Descending Indianapolis Center
Thu 07:18:23 PM 40.7353 -84.7808 308° West 386 444 34,000 -48 Descending Indianapolis Center
Thu 07:19:25 PM 40.7889 -84.8978 301° West 378 435 34,000  Level Indianapolis Center
Thu 07:20:27 PM 40.8425 -85.0203 300° West 374 430 34,000 -339 Level Indianapolis Center
Thu 07:21:29 PM 40.8922 -85.1328 300° West 360 414 33,300 -878 Descending Indianapolis Center
Thu 07:22:30 PM 40.9486 -85.2625 300° West 347 399 32,200 -976 Descending Indianapolis Center
Thu 07:23:32 PM 40.9967 -85.3722 300° West 346 398 31,300 -919 Descending Indianapolis Center
Thu 07:24:34 PM 41.0447 -85.4828 300° West 346 398 30,300 -919 Descending Indianapolis Center
Thu 07:25:36 PM 41.0944 -85.5961 300° West 351 404 29,400 -919 Descending Indianapolis Center
Thu 07:26:38 PM 41.1425 -85.7100 299° West 354 407 28,400 -1,317 Descending Indianapolis Center
Thu 07:27:39 PM 41.2022 -85.8461 300° West 363 418 26,700 -1,610 Descending Indianapolis Center
Thu 07:28:41 PM 41.2533 -85.9664 300° West 363 418 25,100 -823 Descending Indianapolis Center
Thu 07:29:43 PM 41.3119 -86.0847 303° West 377 434 25,000 -48 Descending Indianapolis Center
Thu 07:30:45 PM 41.3700 -86.2044 303° West 381 438 25,000 -1,065 Level Indianapolis Center
Thu 07:31:47 PM 41.4269 -86.3208 303° West 380 437 22,800 -2,317 Descending Indianapolis Center
Thu 07:33:10 PM 41.4986 -86.4681 303° West 356 410 19,400 -2,548 Descending Chicago Center
Thu 07:34:13 PM 41.5592 -86.5936 303° West 339 390 16,600 -2,544 Descending Chicago Center
Thu 07:35:15 PM 41.6100 -86.6958 304° West 333 383 14,100 -2,177 Descending Chicago Center
Thu 07:36:17 PM 41.6728 -86.7944 310° West 320 368 12,100 -1,016 Descending Chicago Center
Thu 07:37:19 PM 41.7628 -86.8081 354° North 325 374 12,000  Descending Chicago Center
Thu 07:38:21 PM 41.8553 -86.8292 350° North 318 366 12,100 -97 Climbing Chicago Center
Thu 07:39:23 PM 41.9114 -86.9069 314° West 309 356 11,800 -532 Descending Chicago Center
Thu 07:40:25 PM 41.9344 -87.0153 286° West 306 352 11,000 -768 Descending Chicago Center
Thu 07:41:28 PM 41.9564 -87.1300 284° West 297 342 10,200 -672 Descending Chicago Center
Thu 07:42:30 PM 41.9750 -87.2206 285° West 254 292 9,600 -629 Descending Chicago Center
Thu 07:43:32 PM 41.9844 -87.3131 278° West 239 275 8,900 -581 Descending Chicago Center
Thu 07:44:34 PM 41.9819 -87.4019 268° West 238 274 8,400 -1,016 Descending Chicago Center
Thu 07:45:36 PM 41.9831 -87.4942 271° West 235 270 6,800 -1,440 Descending Chicago Center
Thu 07:46:39 PM 41.9825 -87.5775 270° West 227 261 5,400 -1,361 Descending Chicago Center
Thu 07:47:13 PM 41.9833 -87.6333 271° West 226 260 4,600 -1,277 Descending Chicago TRACON
Thu 07:48:13 PM 41.9833 -87.7167 270° West 214 246 3,400 -1,158 Descending Chicago TRACON
Thu 07:49:07 PM 41.9833 -87.7833 270° West 185 213 2,400 -1,000 Descending Chicago TRACON
Thu 07:50:07 PM 41.9833 -87.8333 270° West 154 177 1,500 -556 Descending Chicago TRACON
Thu 07:51:49 PM 41.9828 -87.9208 270° West 153 176 900 -353 Descending Chicago Center

Login

Don't have an account? Register now (free) for customized features, flight alerts, and more!